^^

Nearby METAR Reports


EGAC - Belfast Harbour, United Kingdom
Distance from station: W 8mi, 13km
Updated: 21/04/2018 20:20
Clear
Clear
 Wind from SSE
Wind: SSE 10 mph , 17 km/h
Temperature: 11°C
Dew Point: 7°C
Humidity: 77%
Barometer: 1010 hPa
Clouds: Clear
Visibility: 6 miles , 10 km
2018/04/21 19:20 EGAC 211920Z AUTO 15009KT 9999 NCD 11/07 Q1010
EGAA - Belfast/Aldergrove, United Kingdom
Distance from station: W 22mi, 35km
Updated: 21/04/2018 20:20
Clear
Clear
 Wind from SE
Wind: SE 9 mph , 15 km/h
Temperature: 12°C
Dew Point: 5°C
Humidity: 63%
Barometer: 1009 hPa
Summary: Clear
Visibility: greater than 7 miles , 10 km
2018/04/21 19:20 EGAA 211920Z 13008KT CAVOK 12/05 Q1009
 
EGNS - Isle Of Man/Rona, United Kingdom
Distance from station: SE 57mi, 91km
Updated: 21/04/2018 20:20
Clear
Clear
 Wind from NE
Wind: NE 5 mph , 7 km/h
Temperature: 13°C
Dew Point: 7°C
Humidity: 67%
Barometer: 1011 hPa
Summary: Clear
Visibility: greater than 7 miles , 10 km
2018/04/21 19:20 EGNS 211920Z 05004KT CAVOK 13/07 Q1011 NOSIG
EGAE - Eglinton/Londonderry, United Kingdom
Distance from station: WNW 65mi, 105km
Updated: 21/04/2018 17:50
NOT Current
Few Clouds
Few Clouds
 Wind from SW
Wind: SW 10 mph , 17 km/h
Temperature: 19°C
Dew Point: 5°C
Humidity: 40%
Barometer: 1010 hPa
Clouds: Few Clouds
Visibility: 6 miles , 10 km
Cloud details: Few Clouds 1463 m
2018/04/21 16:50 EGAE 211650Z 22009KT 9999 FEW048 19/05 Q1010
 
EGPK - Prestwick(Civ/Na, United Kingdom
Distance from station: NE 74mi, 119km
Updated: 21/04/2018 20:20
Clear
Clear
 Wind from E
Wind: E 3 mph , 6 km/h
Temperature: 14°C
Dew Point: 5°C
Humidity: 55%
Barometer: 1011 hPa
Summary: Clear
Visibility: greater than 7 miles , 10 km
2018/04/21 19:20 EGPK 211920Z 10003KT CAVOK 14/05 Q1011
EIDW - Dublin Airport, Ireland
Distance from station: SSW 87mi, 141km
Updated: 21/04/2018 20:00
Clear
Clear
 Wind from ESE
Wind: ESE 6 mph , 9 km/h
Temperature: 11°C
Dew Point: 7°C
Humidity: 77%
Barometer: 1010 hPa
Summary: Clear
Visibility: greater than 7 miles , 10 km
2018/04/21 19:00 EIDW 211900Z 11005KT 090V150 CAVOK 11/07 Q1010 NOSIG